createdAt,value
2023-05-08T00:00:38.205Z,0
2023-05-08T00:03:38.450Z,0
2023-05-08T00:06:38.216Z,0
2023-05-08T00:09:38.191Z,0.4
2023-05-08T00:12:38.315Z,0.05
2023-05-08T00:15:38.271Z,0.35
2023-05-08T00:18:38.134Z,0.45
2023-05-08T00:21:38.197Z,0.4
2023-05-08T00:24:38.262Z,0.1
2023-05-08T00:27:38.223Z,0
2023-05-08T00:30:38.272Z,0
2023-05-08T00:33:38.334Z,0.4
2023-05-08T00:36:38.158Z,0.25
2023-05-08T00:39:38.207Z,0.2
2023-05-08T00:42:38.292Z,0.2
2023-05-08T00:45:38.183Z,0.2
2023-05-08T00:48:38.271Z,0.2
2023-05-08T00:51:38.225Z,0.15
2023-05-08T00:54:38.296Z,0.2
2023-05-08T00:57:38.335Z,0.3
2023-05-08T01:00:38.197Z,0.3
2023-05-08T01:03:38.583Z,0.35
2023-05-08T01:06:38.294Z,0.2
2023-05-08T01:09:38.326Z,0.1
2023-05-08T01:12:38.306Z,0.3
2023-05-08T01:15:38.305Z,0.3
2023-05-08T01:18:38.347Z,0.35
2023-05-08T01:21:38.253Z,0.1
2023-05-08T01:24:38.257Z,0.2
2023-05-08T01:27:38.254Z,0.2
2023-05-08T01:30:38.284Z,0.1
2023-05-08T01:33:38.459Z,0.1
2023-05-08T01:36:38.378Z,0.25
2023-05-08T01:39:38.306Z,0.05
2023-05-08T01:42:38.307Z,0.15
2023-05-08T01:45:38.461Z,0.3
2023-05-08T01:48:38.283Z,0.4
2023-05-08T01:51:38.360Z,0.25
2023-05-08T01:54:38.402Z,0.2
2023-05-08T01:57:38.325Z,0.25
2023-05-08T02:00:38.482Z,0.2
2023-05-08T02:03:38.523Z,0.3
2023-05-08T02:06:38.301Z,0.4
2023-05-08T02:09:38.415Z,0.6
2023-05-08T02:12:38.419Z,0.35
2023-05-08T02:15:38.479Z,0.45
2023-05-08T02:18:38.378Z,0.25
2023-05-08T02:21:38.359Z,0.3
2023-05-08T02:24:38.322Z,0.25
2023-05-08T02:27:38.323Z,0.45
2023-05-08T02:30:38.473Z,0.7
2023-05-08T02:33:38.267Z,0.7
2023-05-08T02:36:38.425Z,0.9
2023-05-08T02:39:38.376Z,0.9
2023-05-08T02:42:38.359Z,0.85
2023-05-08T02:45:38.406Z,0.8
2023-05-08T02:48:38.445Z,0.5
2023-05-08T02:51:38.326Z,0.5
2023-05-08T02:54:38.419Z,0.55
2023-05-08T02:57:38.292Z,0.35
2023-05-08T03:00:38.402Z,0.3
2023-05-08T03:03:38.562Z,0.4
2023-05-08T03:06:38.250Z,0.3
2023-05-08T03:09:38.362Z,0.6
2023-05-08T03:12:38.979Z,0.4
2023-05-08T03:15:38.401Z,0.4
2023-05-08T03:18:38.393Z,0.6
2023-05-08T03:21:38.338Z,0.4
2023-05-08T03:24:38.483Z,0.6
2023-05-08T03:27:38.461Z,0.6
2023-05-08T03:30:38.322Z,0.6
2023-05-08T03:33:38.377Z,0.85
2023-05-08T03:36:38.471Z,0.8
2023-05-08T03:39:38.302Z,0.4
2023-05-08T03:42:38.433Z,0.4
2023-05-08T03:45:38.411Z,0.6
2023-05-08T03:48:38.484Z,0.8
2023-05-08T03:51:38.393Z,0.75
2023-05-08T03:54:38.464Z,0.9
2023-05-08T03:57:38.580Z,1.1
2023-05-08T04:00:38.352Z,0.75
2023-05-08T04:03:38.657Z,0.9
2023-05-08T04:06:49.794Z,0.75
2023-05-08T04:09:38.414Z,0.85
2023-05-08T04:12:38.664Z,0.9
2023-05-08T04:15:38.569Z,1.1
2023-05-08T04:18:38.400Z,0.8
2023-05-08T04:21:38.385Z,1
2023-05-08T04:24:38.666Z,0.95
2023-05-08T04:27:38.415Z,0.6
2023-05-08T04:30:38.509Z,0.7
2023-05-08T04:33:38.430Z,0.6
2023-05-08T04:36:38.466Z,0.75
2023-05-08T04:39:38.456Z,0.75
2023-05-08T04:42:38.448Z,0.9
2023-05-08T04:45:38.800Z,0.55
2023-05-08T04:48:38.577Z,0.55
2023-05-08T04:51:39.625Z,0.8
2023-05-08T04:54:38.494Z,0.85
2023-05-08T04:57:38.496Z,0.7
2023-05-08T05:00:38.506Z,0.95
2023-05-08T05:03:38.539Z,0.6
2023-05-08T05:06:38.582Z,0.7
2023-05-08T05:09:38.488Z,0.8
2023-05-08T05:12:38.521Z,0.85
2023-05-08T05:15:38.580Z,0.95
2023-05-08T05:18:38.519Z,1.15
2023-05-08T05:21:38.566Z,1.35
2023-05-08T05:24:38.472Z,1.05
2023-05-08T05:27:38.718Z,1
2023-05-08T05:30:38.606Z,1.2
2023-05-08T05:33:38.429Z,0.6
2023-05-08T05:36:38.521Z,0.65
2023-05-08T05:39:38.478Z,1.05
2023-05-08T05:42:38.419Z,1.05
2023-05-08T05:45:38.579Z,1
2023-05-08T05:48:39.935Z,1.2
2023-05-08T05:51:38.519Z,1.15
2023-05-08T05:54:38.491Z,0.8
2023-05-08T05:57:38.650Z,1.25
2023-05-08T06:00:38.597Z,1.2
2023-05-08T06:03:38.637Z,2.35
2023-05-08T06:06:38.645Z,1.9
2023-05-08T06:09:38.466Z,1.4
2023-05-08T06:12:38.526Z,1.25
2023-05-08T06:15:38.534Z,1.65
2023-05-08T06:18:38.504Z,1.1
2023-05-08T06:21:38.610Z,1.6
2023-05-08T06:24:38.493Z,1.45
2023-05-08T06:27:38.629Z,1.3
2023-05-08T06:30:38.740Z,0.85
2023-05-08T06:33:38.521Z,1.15
2023-05-08T06:36:38.587Z,1.05
2023-05-08T06:39:38.601Z,1.2
2023-05-08T06:42:38.500Z,1.3
2023-05-08T06:45:38.577Z,1.25
2023-05-08T06:48:38.594Z,1.35
2023-05-08T06:51:38.584Z,1.1
2023-05-08T06:54:38.588Z,0.9
2023-05-08T06:57:38.600Z,1.9
2023-05-08T07:00:38.560Z,1.5
2023-05-08T07:03:38.568Z,1.4
2023-05-08T07:06:38.573Z,1.6
2023-05-08T07:09:38.628Z,1.4
2023-05-08T07:12:38.712Z,1.3
2023-05-08T07:15:38.625Z,1.15
2023-05-08T07:18:38.767Z,1.9
2023-05-08T07:21:38.595Z,1.4
2023-05-08T07:24:38.734Z,1.45
2023-05-08T07:27:38.619Z,1.35
2023-05-08T07:30:38.534Z,1.5
2023-05-08T07:33:38.616Z,1.2
2023-05-08T07:36:38.652Z,1.1
2023-05-08T07:39:38.674Z,0.75
2023-05-08T07:42:38.632Z,0.75
2023-05-08T07:45:38.600Z,1.75
2023-05-08T07:48:38.563Z,1.55
2023-05-08T07:51:38.625Z,1.35
2023-05-08T07:54:53.129Z,1.4
2023-05-08T07:57:39.716Z,1.3
2023-05-08T08:00:38.951Z,1.65
2023-05-08T08:03:38.764Z,1.85
2023-05-08T08:06:38.618Z,1.15
2023-05-08T08:09:38.734Z,0.95
2023-05-08T08:12:38.764Z,0.6
2023-05-08T08:15:38.578Z,0.95
2023-05-08T08:18:38.628Z,1
2023-05-08T08:21:38.615Z,1.05
2023-05-08T08:24:38.583Z,1.4
2023-05-08T08:27:38.640Z,1.3
2023-05-08T08:30:38.653Z,0.85
2023-05-08T08:33:38.573Z,1.05
2023-05-08T08:36:38.613Z,0.85
2023-05-08T08:39:38.705Z,1.35
2023-05-08T08:42:38.648Z,1.45
2023-05-08T08:45:38.609Z,1.15
2023-05-08T08:48:38.587Z,1.2
2023-05-08T08:51:38.862Z,1.05
2023-05-08T08:54:38.725Z,1.55
2023-05-08T08:57:38.682Z,0.7
2023-05-08T09:00:38.778Z,0.95
2023-05-08T09:03:38.936Z,0.5
2023-05-08T09:06:38.729Z,1.55
2023-05-08T09:09:38.826Z,0.95
2023-05-08T09:12:38.776Z,0.75
2023-05-08T09:15:38.724Z,0.9
2023-05-08T09:18:38.713Z,0.65
2023-05-08T09:21:38.730Z,0.75
2023-05-08T09:24:38.685Z,1.15
2023-05-08T09:27:38.769Z,0.8
2023-05-08T09:30:38.617Z,0.75
2023-05-08T09:33:38.605Z,1.15
2023-05-08T09:36:38.746Z,0.9
2023-05-08T09:39:38.707Z,0.85
2023-05-08T09:42:38.676Z,0.65
2023-05-08T09:45:38.804Z,0.9
2023-05-08T09:48:38.692Z,0.75
2023-05-08T09:51:38.788Z,0.9
2023-05-08T09:54:38.765Z,0.95
2023-05-08T09:57:38.672Z,1.15
2023-05-08T10:00:38.880Z,0.95
2023-05-08T10:03:38.871Z,1.6
2023-05-08T10:06:38.873Z,1.25
2023-05-08T10:09:50.521Z,1.05
2023-05-08T10:12:38.914Z,1.2
2023-05-08T10:15:40.345Z,1.35
2023-05-08T10:18:38.876Z,1
2023-05-08T10:21:38.768Z,1.35
2023-05-08T10:24:38.787Z,0.95
2023-05-08T10:27:38.740Z,1.35
2023-05-08T10:30:38.714Z,1.25
2023-05-08T10:33:38.693Z,1.2
2023-05-08T10:36:38.800Z,1.15
2023-05-08T10:39:38.769Z,1.55
2023-05-08T10:42:38.787Z,1.25
2023-05-08T10:45:38.811Z,1.15
2023-05-08T10:48:38.701Z,1.55
2023-05-08T10:51:38.865Z,1.95
2023-05-08T10:54:41.690Z,2.1
2023-05-08T10:57:38.974Z,1.6
2023-05-08T11:00:38.831Z,1.2
2023-05-08T11:03:38.888Z,1.8
2023-05-08T11:06:38.860Z,1.1
2023-05-08T11:09:38.791Z,1.45
2023-05-08T11:12:38.922Z,0.85
2023-05-08T11:15:38.857Z,1.65
2023-05-08T11:18:49.351Z,0.9
2023-05-08T11:21:38.742Z,1.2
2023-05-08T11:24:38.837Z,1.1
2023-05-08T11:27:38.958Z,1.55
2023-05-08T11:30:38.970Z,1.05
2023-05-08T11:33:38.728Z,1.3
2023-05-08T11:36:38.909Z,1.7
2023-05-08T11:39:38.857Z,1.15
2023-05-08T11:42:38.858Z,1.45
2023-05-08T11:45:39.667Z,1.35
2023-05-08T11:48:38.915Z,1
2023-05-08T11:51:38.830Z,0.95
2023-05-08T11:54:38.781Z,0.95
2023-05-08T11:57:38.884Z,1.65
2023-05-08T12:00:39.035Z,1.1
2023-05-08T12:03:39.262Z,1.15
2023-05-08T12:06:38.788Z,1.05
2023-05-08T12:09:38.883Z,0.95
2023-05-08T12:12:39.006Z,1.6
2023-05-08T12:15:38.790Z,1
2023-05-08T12:18:41.310Z,1.55
2023-05-08T12:21:38.841Z,1.25
2023-05-08T12:24:38.737Z,1.5
2023-05-08T12:27:38.950Z,0.75
2023-05-08T12:30:39.011Z,1.3
2023-05-08T12:33:38.834Z,1.15
2023-05-08T12:36:38.969Z,1.55
2023-05-08T12:39:39.042Z,0.7
2023-05-08T12:42:38.956Z,1.3
2023-05-08T12:45:38.876Z,1.4
2023-05-08T12:48:38.907Z,1.5
2023-05-08T12:51:38.869Z,1.25
2023-05-08T12:54:39.251Z,1.6
2023-05-08T12:57:38.971Z,1.35
2023-05-08T13:00:38.958Z,1.2
2023-05-08T13:03:39.174Z,1.15
2023-05-08T13:06:38.963Z,1.1
2023-05-08T13:09:38.903Z,0.95
2023-05-08T13:12:39.033Z,0.95
2023-05-08T13:15:38.928Z,1.25
2023-05-08T13:18:39.260Z,0.9
2023-05-08T13:21:38.968Z,1.35
2023-05-08T13:24:38.917Z,1.3
2023-05-08T13:27:38.845Z,1
2023-05-08T13:30:38.831Z,0.9
2023-05-08T13:33:38.916Z,1.2
2023-05-08T13:36:39.012Z,1.4
2023-05-08T13:39:38.860Z,0.95
2023-05-08T13:42:38.868Z,1.65
2023-05-08T13:45:38.917Z,1.4
2023-05-08T13:48:38.980Z,1.35
2023-05-08T13:51:38.917Z,1.3
2023-05-08T13:54:38.932Z,1.35
2023-05-08T13:57:39.018Z,1
2023-05-08T14:00:39.035Z,1.1
2023-05-08T14:03:39.236Z,1.25
2023-05-08T14:06:38.892Z,1.25
2023-05-08T14:09:38.970Z,1.25
2023-05-08T14:12:39.003Z,1.25
2023-05-08T14:15:39.183Z,1.2
2023-05-08T14:18:39.055Z,1.5
2023-05-08T14:21:39.045Z,1.85
2023-05-08T14:24:38.966Z,1.35
2023-05-08T14:27:38.927Z,1.8
2023-05-08T14:30:39.060Z,1.05
2023-05-08T14:33:39.005Z,1.15
2023-05-08T14:36:39.060Z,1.8
2023-05-08T14:39:38.971Z,1
2023-05-08T14:42:39.065Z,1.9
2023-05-08T14:45:39.066Z,1.3
2023-05-08T14:48:38.996Z,1.9
2023-05-08T14:51:38.966Z,0.95
2023-05-08T14:54:39.501Z,2.3
2023-05-08T14:57:39.113Z,1.4
2023-05-08T15:00:39.049Z,1.35
2023-05-08T15:03:39.409Z,2.15
2023-05-08T15:06:39.048Z,1.25
2023-05-08T15:09:38.972Z,1.75
2023-05-08T15:12:39.134Z,1.4
2023-05-08T15:15:39.024Z,1.5
2023-05-08T15:18:39.062Z,1.35
2023-05-08T15:21:39.040Z,1.5
2023-05-08T15:24:39.072Z,2
2023-05-08T15:27:39.071Z,1.65
2023-05-08T15:30:39.020Z,1.4
2023-05-08T15:33:38.928Z,1.65
2023-05-08T15:36:39.051Z,1.55
2023-05-08T15:39:39.122Z,2.05
2023-05-08T15:42:39.042Z,1.25
2023-05-08T15:45:39.154Z,1.45
2023-05-08T15:48:38.976Z,1.2
2023-05-08T15:51:39.156Z,1.65
2023-05-08T15:54:39.081Z,1.4
2023-05-08T15:57:39.115Z,1.55
2023-05-08T16:00:45.419Z,1.55
2023-05-08T16:03:39.138Z,1.1
2023-05-08T16:06:39.100Z,1.35
2023-05-08T16:09:39.172Z,1.25
2023-05-08T16:12:39.143Z,1.15
2023-05-08T16:15:39.148Z,1.7
2023-05-08T16:18:39.119Z,1.7
2023-05-08T16:21:39.159Z,1.65
2023-05-08T16:24:39.131Z,1.15
2023-05-08T16:27:39.096Z,1.7
2023-05-08T16:30:39.126Z,1
2023-05-08T16:33:39.083Z,1.6
2023-05-08T16:36:39.085Z,1.45
2023-05-08T16:39:39.046Z,0.5
2023-05-08T16:42:39.161Z,0.7
2023-05-08T16:45:39.161Z,0.65
2023-05-08T16:48:39.073Z,1.1
2023-05-08T16:51:39.124Z,1.15
2023-05-08T16:54:39.170Z,0.7
2023-05-08T16:57:39.112Z,0.9
2023-05-08T17:00:39.059Z,0.7
2023-05-08T17:03:39.324Z,1.3
2023-05-08T17:06:39.098Z,1
2023-05-08T17:09:39.118Z,1.05
2023-05-08T17:12:39.278Z,1.6
2023-05-08T17:15:39.064Z,0.75
2023-05-08T17:18:39.146Z,0.9
2023-05-08T17:21:39.234Z,1.45
2023-05-08T17:24:39.120Z,0.95
2023-05-08T17:27:39.138Z,0.6
2023-05-08T17:30:39.187Z,0.45
2023-05-08T17:33:39.129Z,0.4
2023-05-08T17:36:39.138Z,0.7
2023-05-08T17:39:39.129Z,0.45
2023-05-08T17:42:39.088Z,0.65
2023-05-08T17:45:39.190Z,0.25
2023-05-08T17:48:39.221Z,0.45
2023-05-08T17:51:39.137Z,0.55
2023-05-08T17:54:39.153Z,0.35
2023-05-08T17:57:39.200Z,0.4
2023-05-08T18:00:39.177Z,0.9
2023-05-08T18:03:39.311Z,0.45
2023-05-08T18:06:39.159Z,0.45
2023-05-08T18:09:39.198Z,0.5
2023-05-08T18:12:39.253Z,0.55
2023-05-08T18:15:39.390Z,0.25
2023-05-08T18:18:39.163Z,0.3
2023-05-08T18:21:39.374Z,0.3
2023-05-08T18:24:39.116Z,0.4
2023-05-08T18:27:39.247Z,0.45
2023-05-08T18:30:39.192Z,0.25
2023-05-08T18:33:39.245Z,0.4
2023-05-08T18:36:39.193Z,0.3
2023-05-08T18:39:39.112Z,0.4
2023-05-08T18:42:39.272Z,0.65
2023-05-08T18:45:39.109Z,0.3
2023-05-08T18:48:39.195Z,0.2
2023-05-08T18:51:39.229Z,0.2
2023-05-08T18:54:39.137Z,0.15
2023-05-08T18:57:39.156Z,0.15
2023-05-08T19:00:39.276Z,0
2023-05-08T19:03:39.377Z,0.1
2023-05-08T19:06:39.213Z,0.1
2023-05-08T19:09:39.238Z,0
2023-05-08T19:12:39.314Z,0.1
2023-05-08T19:15:39.324Z,0.2
2023-05-08T19:18:39.548Z,0.1
2023-05-08T19:21:39.284Z,0.3
2023-05-08T19:24:39.201Z,0.3
2023-05-08T19:27:39.358Z,0.3
2023-05-08T19:30:39.276Z,0.2
2023-05-08T19:33:39.276Z,0.3
2023-05-08T19:36:39.158Z,0.2
2023-05-08T19:39:39.256Z,0.45
2023-05-08T19:42:39.271Z,0.4
2023-05-08T19:45:39.306Z,0.35
2023-05-08T19:48:39.345Z,0.2
2023-05-08T19:51:39.326Z,0.1
2023-05-08T19:54:39.497Z,0.35
2023-05-08T19:57:39.354Z,0.2
2023-05-08T20:00:39.278Z,0.45
2023-05-08T20:03:39.508Z,0.4
2023-05-08T20:06:39.331Z,0.35
2023-05-08T20:09:39.328Z,0.75
2023-05-08T20:12:39.588Z,0.75
2023-05-08T20:15:39.378Z,0.75
2023-05-08T20:18:39.424Z,1.15
2023-05-08T20:21:39.325Z,1
2023-05-08T20:24:39.287Z,1.25
2023-05-08T20:27:39.354Z,0.95
2023-05-08T20:30:39.483Z,1.3
2023-05-08T20:33:39.305Z,1.1
2023-05-08T20:36:39.372Z,1.3
2023-05-08T20:39:39.305Z,1.2
2023-05-08T20:42:39.261Z,1.55
2023-05-08T20:45:39.399Z,1.5
2023-05-08T20:48:39.320Z,1.2
2023-05-08T20:51:39.315Z,1.55
2023-05-08T20:54:39.333Z,1.05
2023-05-08T20:57:39.330Z,1.55
2023-05-08T21:00:39.245Z,1.5
2023-05-08T21:03:39.321Z,1.25
2023-05-08T21:06:39.316Z,1.7
2023-05-08T21:09:39.370Z,1.1
2023-05-08T21:12:39.264Z,1.05
2023-05-08T21:15:39.417Z,1.4
2023-05-08T21:18:39.382Z,1.75
2023-05-08T21:21:39.417Z,2.05
2023-05-08T21:24:39.454Z,1.4
2023-05-08T21:27:39.356Z,1.8
2023-05-08T21:30:39.293Z,0.95
2023-05-08T21:33:39.417Z,0.8
2023-05-08T21:36:39.399Z,0.65
2023-05-08T21:39:39.283Z,0.7
2023-05-08T21:42:39.363Z,1.05
2023-05-08T21:45:39.482Z,1
2023-05-08T21:48:39.293Z,0.8
2023-05-08T21:51:39.435Z,0.95
2023-05-08T21:54:39.381Z,0.55
2023-05-08T21:57:39.373Z,0.55
2023-05-08T22:00:39.345Z,0.7
2023-05-08T22:03:39.429Z,0.85
2023-05-08T22:06:39.489Z,0.65
2023-05-08T22:09:39.397Z,0.7
2023-05-08T22:12:39.561Z,1.05
2023-05-08T22:15:39.506Z,0.8
2023-05-08T22:18:39.545Z,1.15
2023-05-08T22:21:39.428Z,1.1
2023-05-08T22:24:39.390Z,0.95
2023-05-08T22:27:39.326Z,0.85
2023-05-08T22:30:39.352Z,1.1
2023-05-08T22:33:39.494Z,1.05
2023-05-08T22:36:39.434Z,0.75
2023-05-08T22:39:39.330Z,0.65
2023-05-08T22:42:39.496Z,0.45
2023-05-08T22:45:39.429Z,0.25
2023-05-08T22:48:39.496Z,0.2
2023-05-08T22:51:39.345Z,0.35
2023-05-08T22:54:39.849Z,0.2
2023-05-08T22:57:39.450Z,0.25
2023-05-08T23:00:39.465Z,0.3
2023-05-08T23:03:39.524Z,0.4
2023-05-08T23:06:39.465Z,0
2023-05-08T23:09:39.451Z,0
2023-05-08T23:12:39.465Z,0
2023-05-08T23:15:39.510Z,0.35
2023-05-08T23:18:39.547Z,0.2
2023-05-08T23:21:39.460Z,0.3
2023-05-08T23:24:39.461Z,0.35
2023-05-08T23:27:39.382Z,0.35
2023-05-08T23:30:39.496Z,0
2023-05-08T23:33:39.459Z,0
2023-05-08T23:36:39.469Z,0
2023-05-08T23:39:39.461Z,0.2
2023-05-08T23:42:39.516Z,0.3
2023-05-08T23:45:39.518Z,0.25
2023-05-08T23:48:39.453Z,0.15
2023-05-08T23:51:39.498Z,0.25
2023-05-08T23:54:39.505Z,0
2023-05-08T23:57:39.431Z,0
